Time;durP1;ratioP1;P1;durP2;ratioP2;P2;SDS_P1;SDS_P2;PMS_P1;PMS_P2;Temp;Humidity;BMP_temperature;BMP_pressure;BME280_temperature;BME280_humidity;BME280_pressure;Samples;Min_cycle;Max_cycle;Signal;HPM_P1;HPM_P2
2021/10/24 00:00:19;;;;;;;;;;;;;;;18.02;39.66;96696.09;1040089;28;948;-61
2021/10/24 00:00:49;;;;;;;;;;;;;;;18.02;39.69;96704.78;1035859;28;1158;-61
2021/10/24 00:01:19;;;;;;;;;;;;;;;18.02;39.82;96698.72;1032152;28;983;-61
2021/10/24 00:01:50;;;;;;;;;;;;;;;18.01;39.77;96700.56;1036170;28;817;-61
2021/10/24 00:02:21;;;;;;;;;;;;;;;18.02;39.89;96702.16;1036013;28;1894;-61
2021/10/24 00:02:51;;;;;;;;;;;;;;;18.02;39.67;96698.72;1039116;28;765;-61
2021/10/24 00:03:22;;;;;;;;;;;;;;;18.03;39.71;96695.91;1044857;28;804;-61
2021/10/24 00:03:52;;;;;;;;;;;;;;;18.03;39.69;96700.34;1044457;28;769;-62
2021/10/24 00:04:22;;;;;;;;;;;;;;;18.03;39.80;96700.34;1043669;28;781;-61
2021/10/24 00:04:53;;;;;;;;;;;;;;;18.03;39.81;96702.97;1044237;28;812;-61
2021/10/24 00:05:23;;;;;;;;;;;;;;;18.03;39.75;96701.16;1043992;28;803;-61
2021/10/24 00:05:54;;;;;;;;;;;;;;;18.04;39.64;96696.66;1044646;28;908;-61
2021/10/24 00:06:25;;;;;;;;;;;;;;;18.04;39.80;96704.53;1044316;28;1006;-61
2021/10/24 00:06:55;;;;;;;;;;;;;;;18.04;39.48;96699.28;1044137;28;1061;-61
2021/10/24 00:07:25;;;;;;;;;;;;;;;18.05;39.70;96706.16;1044205;28;784;-61
2021/10/24 00:07:56;;;;;;;;;;;;;;;18.04;39.70;96692.22;1044253;28;935;-61
2021/10/24 00:08:26;;;;;;;;;;;;;;;18.04;39.67;96699.28;1044323;28;1450;-61
2021/10/24 00:08:56;;;;;;;;;;;;;;;18.03;39.64;96695.91;1044285;28;737;-61
2021/10/24 00:09:27;;;;;;;;;;;;;;;18.04;39.65;96701.91;1044273;28;1077;-62
2021/10/24 00:09:57;;;;;;;;;;;;;;;18.04;39.65;96701.91;1044438;28;1006;-61
2021/10/24 00:10:28;;;;;;;;;;;;;;;18.04;39.80;96696.66;1043995;28;823;-61
2021/10/24 00:10:58;;;;;;;;;;;;;;;18.04;39.87;96702.72;1044447;28;1189;-60
2021/10/24 00:11:29;;;;;;;;;;;;;;;18.04;39.79;96699.28;1044538;28;1030;-61
2021/10/24 00:11:59;;;;;;;;;;;;;;;18.04;39.75;96699.28;1044364;28;800;-61
2021/10/24 00:12:29;;;;;;;;;;;;;;;18.04;39.78;96694.06;1044128;28;860;-61
2021/10/24 00:13:00;;;;;;;;;;;;;;;18.03;39.73;96701.16;1044075;28;868;-62
2021/10/24 00:13:31;;;;;;;;;;;;;;;18.04;39.66;96697.47;1040174;28;967;-59
2021/10/24 00:14:04;;;;;;;;;;;;;;;18.03;39.74;96698.53;1040170;28;772;-61
2021/10/24 00:14:34;;;;;;;;;;;;;;;18.03;39.70;96698.53;1039247;28;979;-61
2021/10/24 00:15:04;;;;;;;;;;;;;;;18.03;39.79;96700.34;1036476;28;785;-61
2021/10/24 00:15:35;;;;;;;;;;;;;;;18.03;39.74;96700.34;1039836;28;971;-62
2021/10/24 00:16:05;;;;;;;;;;;;;;;18.03;39.74;96705.59;1040632;28;915;-60
2021/10/24 00:16:36;;;;;;;;;;;;;;;18.02;39.75;96703.97;1040451;28;1129;-61
2021/10/24 00:17:06;;;;;;;;;;;;;;;18.03;39.73;96703.78;1044184;28;796;-61
2021/10/24 00:17:37;;;;;;;;;;;;;;;18.04;39.77;96707.16;1043956;28;971;-61
2021/10/24 00:18:07;;;;;;;;;;;;;;;18.04;39.82;96701.91;1040010;28;788;-61
2021/10/24 00:18:37;;;;;;;;;;;;;;;18.04;39.68;96702.72;1044480;28;819;-61
2021/10/24 00:19:08;;;;;;;;;;;;;;;18.04;39.70;96696.66;1044221;28;1034;-61
2021/10/24 00:19:38;;;;;;;;;;;;;;;18.04;39.82;96696.66;1044089;28;785;-61
2021/10/24 00:20:09;;;;;;;;;;;;;;;18.05;39.79;96703.53;1043609;28;979;-61
2021/10/24 00:20:39;;;;;;;;;;;;;;;18.04;39.72;96701.91;1039801;28;1284;-61
2021/10/24 00:21:10;;;;;;;;;;;;;;;18.04;39.65;96700.09;1040178;28;777;-61
2021/10/24 00:21:40;;;;;;;;;;;;;;;18.02;39.81;96696.91;1044314;28;855;-60
2021/10/24 00:22:10;;;;;;;;;;;;;;;18.04;39.66;96701.91;1044034;28;1909;-61
2021/10/24 00:22:41;;;;;;;;;;;;;;;18.05;39.70;96704.34;1044200;28;762;-61
2021/10/24 00:23:12;;;;;;;;;;;;;;;18.04;39.73;96696.66;1044408;28;741;-61
2021/10/24 00:23:43;;;;;;;;;;;;;;;18.04;39.78;96699.28;1043644;28;796;-61
2021/10/24 00:24:13;;;;;;;;;;;;;;;18.02;39.69;96689.03;1044304;28;1038;-61
2021/10/24 00:24:43;;;;;;;;;;;;;;;18.03;39.72;96695.91;1044266;28;874;-61
2021/10/24 00:25:14;;;;;;;;;;;;;;;18.02;39.65;96694.28;1044346;28;1125;-61
2021/10/24 00:25:44;;;;;;;;;;;;;;;18.03;39.67;96698.53;1043722;28;862;-63
2021/10/24 00:26:14;;;;;;;;;;;;;;;18.02;39.43;96691.66;1044038;28;808;-61
2021/10/24 00:26:45;;;;;;;;;;;;;;;18.03;39.79;96697.72;1044478;28;736;-61
2021/10/24 00:27:15;;;;;;;;;;;;;;;18.02;39.72;96688.25;1048416;28;1021;-61
2021/10/24 00:27:45;;;;;;;;;;;;;;;18.02;39.64;96693.47;1048132;28;1057;-61
2021/10/24 00:28:16;;;;;;;;;;;;;;;18.02;39.65;96688.25;1048085;28;930;-61
2021/10/24 00:28:46;;;;;;;;;;;;;;;18.02;39.82;96691.66;1048462;28;1084;-61
2021/10/24 00:29:16;;;;;;;;;;;;;;;18.02;39.68;96689.03;1044506;28;1014;-60
2021/10/24 00:29:47;;;;;;;;;;;;;;;18.03;39.78;96687.22;1044095;28;993;-58
2021/10/24 00:30:17;;;;;;;;;;;;;;;18.02;39.83;96686.41;1044407;28;841;-60
2021/10/24 00:30:47;;;;;;;;;;;;;;;18.02;39.71;96683.78;1039713;28;1328;-59
2021/10/24 00:31:18;;;;;;;;;;;;;;;18.02;39.71;96686.41;1040267;28;1018;-60
2021/10/24 00:31:48;;;;;;;;;;;;;;;18.02;39.81;96689.03;1040021;28;970;-62
2021/10/24 00:32:18;;;;;;;;;;;;;;;18.02;39.75;96683.00;1039799;28;855;-61
2021/10/24 00:32:49;;;;;;;;;;;;;;;18.02;39.64;96683.00;1042947;28;741;-60
2021/10/24 00:33:19;;;;;;;;;;;;;;;18.02;39.79;96683.78;1044680;28;986;-60
2021/10/24 00:33:49;;;;;;;;;;;;;;;18.02;39.69;96683.00;1044424;28;788;-59
2021/10/24 00:34:20;;;;;;;;;;;;;;;18.02;39.84;96677.75;1044318;28;836;-61
2021/10/24 00:34:50;;;;;;;;;;;;;;;18.01;39.80;96684.81;1044376;28;839;-60
2021/10/24 00:35:21;;;;;;;;;;;;;;;18.02;39.82;96681.16;1044220;28;803;-59
2021/10/24 00:35:51;;;;;;;;;;;;;;;18.02;39.82;96680.38;1043834;28;804;-61
2021/10/24 00:36:22;;;;;;;;;;;;;;;18.01;39.88;96679.56;1044361;28;847;-61
2021/10/24 00:36:52;;;;;;;;;;;;;;;18.02;39.78;96683.78;1044809;28;804;-61
2021/10/24 00:37:22;;;;;;;;;;;;;;;18.02;39.77;96680.38;1044381;28;1525;-61
2021/10/24 00:37:53;;;;;;;;;;;;;;;18.02;39.72;96677.75;1043789;28;875;-59
2021/10/24 00:38:23;;;;;;;;;;;;;;;18.01;39.70;96676.16;1044195;28;784;-61
2021/10/24 00:38:54;;;;;;;;;;;;;;;18.01;39.72;96676.94;1042930;28;855;-62
2021/10/24 00:39:24;;;;;;;;;;;;;;;18.01;39.60;96676.94;1040791;28;788;-61
2021/10/24 00:39:54;;;;;;;;;;;;;;;18.01;39.71;96676.94;1044389;28;796;-61
2021/10/24 00:40:25;;;;;;;;;;;;;;;18.01;39.66;96673.53;1044289;28;624;-61
2021/10/24 00:40:56;;;;;;;;;;;;;;;18.01;39.74;96671.69;1043823;28;1260;-61
2021/10/24 00:41:29;;;;;;;;;;;;;;;18.02;39.79;96677.75;1039672;28;1089;-61
2021/10/24 00:42:00;;;;;;;;;;;;;;;18.01;39.68;96673.53;1040032;28;963;-61
2021/10/24 00:42:30;;;;;;;;;;;;;;;18.02;39.65;96677.75;1040355;28;1906;-61
2021/10/24 00:43:02;;;;;;;;;;;;;;;18.02;39.72;96675.13;1044308;28;875;-61
2021/10/24 00:43:32;;;;;;;;;;;;;;;18.02;39.81;96683.00;1044433;28;1049;-61
2021/10/24 00:44:21;;;;;;;;;;;;;;;18.01;39.65;96676.94;1044791;28;851;-61
2021/10/24 00:44:52;;;;;;;;;;;;;;;18.01;39.58;96679.56;1044021;28;1419;-61
2021/10/24 00:45:24;;;;;;;;;;;;;;;18.02;39.64;96677.75;1044096;28;824;-61
2021/10/24 00:45:54;;;;;;;;;;;;;;;18.01;39.77;96673.53;1044318;28;831;-61
2021/10/24 00:46:24;;;;;;;;;;;;;;;18.01;39.79;96674.31;1044002;28;792;-61
2021/10/24 00:46:56;;;;;;;;;;;;;;;18.01;39.66;96681.41;1044539;28;1105;-61
2021/10/24 00:47:30;;;;;;;;;;;;;;;18.01;39.74;96674.31;1044442;28;804;-61
2021/10/24 00:48:00;;;;;;;;;;;;;;;18.00;39.70;96669.31;1039011;28;1230;-61
2021/10/24 00:48:31;;;;;;;;;;;;;;;18.01;39.85;96670.94;1039783;28;824;-61
2021/10/24 00:49:01;;;;;;;;;;;;;;;18.00;39.55;96670.13;1040291;28;811;-61
2021/10/24 00:49:32;;;;;;;;;;;;;;;18.01;39.70;96673.53;1040569;28;808;-61
2021/10/24 00:50:03;;;;;;;;;;;;;;;18.01;39.81;96670.94;1044110;28;1476;-62
2021/10/24 00:50:35;;;;;;;;;;;;;;;18.01;39.68;96670.94;1044360;28;780;-61
2021/10/24 00:51:06;;;;;;;;;;;;;;;18.01;39.72;96676.94;1039997;28;832;-61
2021/10/24 00:51:37;;;;;;;;;;;;;;;18.00;39.77;96672.75;1039910;28;945;-61
2021/10/24 00:52:07;;;;;;;;;;;;;;;18.01;39.83;96674.31;1036119;28;780;-61
2021/10/24 00:52:37;;;;;;;;;;;;;;;18.01;39.52;96673.53;1040292;28;780;-61
2021/10/24 00:53:08;;;;;;;;;;;;;;;18.01;39.58;96676.16;1042533;28;796;-61
2021/10/24 00:53:39;;;;;;;;;;;;;;;18.01;39.68;96670.94;1039704;28;820;-61
2021/10/24 00:54:09;;;;;;;;;;;;;;;18.01;39.72;96665.69;1044465;28;1066;-61
2021/10/24 00:54:39;;;;;;;;;;;;;;;18.01;39.61;96668.31;1039552;28;1105;-61
2021/10/24 00:55:10;;;;;;;;;;;;;;;18.01;39.68;96661.19;1036127;28;1038;-60
2021/10/24 00:55:40;;;;;;;;;;;;;;;18.00;39.63;96658.81;1040216;28;705;-61
2021/10/24 00:56:11;;;;;;;;;;;;;;;18.01;39.75;96665.69;1036113;28;809;-59
2021/10/24 00:56:42;;;;;;;;;;;;;;;18.01;39.74;96660.44;1036116;28;1641;-61
2021/10/24 00:57:13;;;;;;;;;;;;;;;17.99;39.66;96660.63;1032043;28;767;-61
2021/10/24 00:57:43;;;;;;;;;;;;;;;18.01;39.70;96665.69;1027858;28;1514;-61
2021/10/24 00:58:14;;;;;;;;;;;;;;;18.00;39.73;96659.63;1031984;28;876;-61
2021/10/24 00:58:47;;;;;;;;;;;;;;;18.01;39.76;96657.81;1040415;28;824;-61
2021/10/24 00:59:17;;;;;;;;;;;;;;;18.00;39.75;96662.25;1040088;28;925;-61
2021/10/24 00:59:47;;;;;;;;;;;;;;;18.00;39.85;96664.88;1040479;28;796;-60
2021/10/24 01:00:18;;;;;;;;;;;;;;;18.01;39.66;96660.44;1044166;28;979;-61
2021/10/24 01:00:48;;;;;;;;;;;;;;;18.00;39.70;96669.31;1043935;28;1201;-60
2021/10/24 01:01:18;;;;;;;;;;;;;;;17.99;39.55;96663.25;1044515;28;1334;-61
2021/10/24 01:01:49;;;;;;;;;;;;;;;17.99;39.75;96660.63;1044199;28;988;-61
2021/10/24 01:02:20;;;;;;;;;;;;;;;17.99;39.67;96663.25;1043872;28;1980;-62
2021/10/24 01:02:50;;;;;;;;;;;;;;;17.99;39.59;96665.13;1042393;28;804;-61
2021/10/24 01:03:21;;;;;;;;;;;;;;;17.98;39.73;96664.31;1043788;28;859;-61
2021/10/24 01:03:51;;;;;;;;;;;;;;;17.99;39.84;96659.88;1044584;28;852;-61
2021/10/24 01:04:22;;;;;;;;;;;;;;;17.99;39.77;96662.50;1043720;28;794;-61
2021/10/24 01:04:52;;;;;;;;;;;;;;;17.98;39.76;96651.19;1044205;28;875;-61
2021/10/24 01:05:23;;;;;;;;;;;;;;;17.98;39.89;96659.06;1044200;28;1007;-61
2021/10/24 01:05:53;;;;;;;;;;;;;;;17.98;39.79;96659.06;1044428;28;832;-61
2021/10/24 01:06:24;;;;;;;;;;;;;;;17.99;39.63;96657.25;1039745;28;852;-61
2021/10/24 01:06:55;;;;;;;;;;;;;;;17.99;39.62;96652.00;1044378;28;796;-62
2021/10/24 01:07:25;;;;;;;;;;;;;;;17.99;39.60;96660.63;1044409;28;808;-61
2021/10/24 01:07:56;;;;;;;;;;;;;;;18.00;39.75;96648.31;1039956;28;1581;-61
2021/10/24 01:08:27;;;;;;;;;;;;;;;18.00;39.69;96656.19;1043676;28;845;-61
2021/10/24 01:08:57;;;;;;;;;;;;;;;17.99;39.71;96650.16;1043973;28;1212;-60
2021/10/24 01:09:33;;;;;;;;;;;;;;;18.00;39.75;96648.31;1043959;28;824;-61
2021/10/24 01:10:07;;;;;;;;;;;;;;;17.99;39.71;96652.78;1044155;28;828;-61
2021/10/24 01:10:40;;;;;;;;;;;;;;;17.99;39.80;96647.53;1043928;28;1209;-61
2021/10/24 01:11:23;;;;;;;;;;;;;;;17.99;39.74;96647.53;1044100;28;1100;-61
2021/10/24 01:12:14;;;;;;;;;;;;;;;17.99;39.63;96646.75;1039475;28;1334;-61
2021/10/24 01:13:04;;;;;;;;;;;;;;;17.98;39.74;96645.94;1039955;28;1264;-61
2021/10/24 01:13:37;;;;;;;;;;;;;;;17.98;39.74;96647.75;1037816;28;1237;-62
2021/10/24 01:14:08;;;;;;;;;;;;;;;17.99;39.67;96644.13;1040060;28;804;-61
2021/10/24 01:14:38;;;;;;;;;;;;;;;17.98;39.85;96645.94;1039332;28;792;-61
2021/10/24 01:15:09;;;;;;;;;;;;;;;17.98;39.84;96639.91;1036491;28;1649;-61
2021/10/24 01:15:39;;;;;;;;;;;;;;;17.98;39.69;96639.91;1040147;28;827;-61
2021/10/24 01:16:10;;;;;;;;;;;;;;;17.98;39.51;96645.94;1040120;28;808;-61
2021/10/24 01:16:41;;;;;;;;;;;;;;;17.98;39.66;96640.69;1040080;28;883;-61
2021/10/24 01:17:14;;;;;;;;;;;;;;;17.98;39.63;96640.69;1040693;28;808;-61
2021/10/24 01:17:44;;;;;;;;;;;;;;;17.99;39.77;96642.28;1043057;28;860;-61
2021/10/24 01:18:19;;;;;;;;;;;;;;;17.98;39.75;96635.44;1043794;28;868;-63
2021/10/24 01:19:07;;;;;;;;;;;;;;;17.98;39.66;96640.69;1040005;28;1197;-61
2021/10/24 01:19:37;;;;;;;;;;;;;;;17.98;39.63;96638.06;1040924;28;1328;-61
2021/10/24 01:20:08;;;;;;;;;;;;;;;17.99;39.73;96636.25;1043906;28;759;-61
2021/10/24 01:20:58;;;;;;;;;;;;;;;17.98;39.59;96639.91;1044956;28;1386;-61
2021/10/24 01:21:49;;;;;;;;;;;;;;;17.98;39.73;96632.84;1045215;28;1039;-61
2021/10/24 01:22:19;;;;;;;;;;;;;;;17.99;39.82;96636.25;1044983;28;1914;-61
2021/10/24 01:22:50;;;;;;;;;;;;;;;17.99;39.75;96631.00;1044996;28;824;-61
2021/10/24 01:23:41;;;;;;;;;;;;;;;17.97;39.78;96636.47;1045315;28;1361;-61
2021/10/24 01:24:31;;;;;;;;;;;;;;;17.98;39.68;96629.41;1042148;28;1103;-61
2021/10/24 01:25:06;;;;;;;;;;;;;;;17.97;39.72;96633.06;1040593;28;1023;-61
2021/10/24 01:25:36;;;;;;;;;;;;;;;17.97;39.92;96627.84;1040808;28;789;-62
2021/10/24 01:26:06;;;;;;;;;;;;;;;17.98;39.89;96630.22;1044385;28;804;-61
2021/10/24 01:26:51;;;;;;;;;;;;;;;17.97;39.74;96627.84;1047029;28;835;-61
2021/10/24 01:27:26;;;;;;;;;;;;;;;17.97;39.61;96633.84;1049100;28;891;-61
2021/10/24 01:28:14;;;;;;;;;;;;;;;17.97;39.63;96636.47;1044404;28;1404;-63
2021/10/24 01:28:52;;;;;;;;;;;;;;;17.97;39.74;96631.22;1040627;28;1194;-61
2021/10/24 01:29:43;;;;;;;;;;;;;;;17.96;39.70;96640.16;1040307;28;1374;-61
2021/10/24 01:30:13;;;;;;;;;;;;;;;17.97;39.63;96633.06;1044702;28;801;-61
2021/10/24 01:30:44;;;;;;;;;;;;;;;17.96;39.74;96632.28;1044981;28;1217;-61
2021/10/24 01:31:14;;;;;;;;;;;;;;;17.97;39.72;96638.31;1045187;28;780;-61
2021/10/24 01:31:44;;;;;;;;;;;;;;;17.96;39.68;96632.28;1045300;28;777;-61
2021/10/24 01:32:15;;;;;;;;;;;;;;;17.97;39.72;96633.06;1044963;28;886;-61
2021/10/24 01:32:45;;;;;;;;;;;;;;;17.97;39.68;96633.06;1044101;28;824;-61
2021/10/24 01:33:15;;;;;;;;;;;;;;;17.97;39.74;96635.69;1045146;28;867;-61
2021/10/24 01:33:46;;;;;;;;;;;;;;;17.97;39.71;96638.31;1044775;28;994;-61
2021/10/24 01:34:16;;;;;;;;;;;;;;;17.97;39.68;96635.69;1044825;28;880;-61
2021/10/24 01:34:47;;;;;;;;;;;;;;;17.97;39.61;96638.31;1045033;28;1077;-61
2021/10/24 01:35:17;;;;;;;;;;;;;;;17.96;39.69;96637.53;1044692;28;966;-61
2021/10/24 01:35:51;;;;;;;;;;;;;;;17.97;39.85;96633.84;1044855;28;756;-62
2021/10/24 01:36:22;;;;;;;;;;;;;;;17.97;39.80;96633.06;1044632;28;816;-61
2021/10/24 01:36:52;;;;;;;;;;;;;;;17.96;39.70;96634.91;1044797;28;833;-61
2021/10/24 01:37:23;;;;;;;;;;;;;;;17.96;39.71;96634.91;1044750;28;832;-61
2021/10/24 01:37:55;;;;;;;;;;;;;;;17.96;39.75;96629.66;1045035;28;1038;-61
2021/10/24 01:38:26;;;;;;;;;;;;;;;17.96;39.67;96628.84;1044943;28;931;-61
2021/10/24 01:38:56;;;;;;;;;;;;;;;17.95;39.71;96629.91;1044502;28;812;-61
2021/10/24 01:39:27;;;;;;;;;;;;;;;17.97;39.67;96625.22;1045051;28;833;-61
2021/10/24 01:39:58;;;;;;;;;;;;;;;17.96;39.72;96627.03;1044839;28;995;-61
2021/10/24 01:40:28;;;;;;;;;;;;;;;17.97;39.64;96627.84;1044770;28;1038;-61
2021/10/24 01:40:59;;;;;;;;;;;;;;;17.96;39.62;96628.84;1044943;28;1276;-61
2021/10/24 01:41:29;;;;;;;;;;;;;;;17.96;39.56;96626.22;1040928;28;975;-61
2021/10/24 01:41:59;;;;;;;;;;;;;;;17.95;39.76;96630.66;1044636;28;975;-61
2021/10/24 01:42:30;;;;;;;;;;;;;;;17.96;39.70;96631.47;1040522;28;1906;-61
2021/10/24 01:43:00;;;;;;;;;;;;;;;17.95;39.77;96624.66;1040735;28;851;-61
2021/10/24 01:43:30;;;;;;;;;;;;;;;17.96;39.77;96634.09;1044998;28;800;-61
2021/10/24 01:44:01;;;;;;;;;;;;;;;17.95;39.78;96630.66;1040213;28;745;-61
2021/10/24 01:44:31;;;;;;;;;;;;;;;17.95;39.55;96625.41;1044385;28;769;-61
2021/10/24 01:45:08;;;;;;;;;;;;;;;17.96;39.65;96626.22;1044854;28;761;-61
2021/10/24 01:45:39;;;;;;;;;;;;;;;17.95;39.68;96625.41;1044845;28;803;-61
2021/10/24 01:46:10;;;;;;;;;;;;;;;17.95;39.75;96633.28;1045106;28;868;-61
2021/10/24 01:46:40;;;;;;;;;;;;;;;17.95;39.70;96620.19;1045317;28;773;-62
2021/10/24 01:47:11;;;;;;;;;;;;;;;17.96;39.63;96623.59;1044552;28;773;-61
2021/10/24 01:47:41;;;;;;;;;;;;;;;17.96;39.71;96626.22;1043718;28;867;-60
2021/10/24 01:48:13;;;;;;;;;;;;;;;17.95;39.62;96624.66;1044870;28;1018;-61
2021/10/24 01:48:43;;;;;;;;;;;;;;;17.95;39.67;96617.56;1045041;28;1050;-61
2021/10/24 01:49:14;;;;;;;;;;;;;;;17.96;39.45;96615.72;1044283;28;851;-61
2021/10/24 01:49:44;;;;;;;;;;;;;;;17.96;39.70;96615.72;1045006;28;879;-61
2021/10/24 01:50:15;;;;;;;;;;;;;;;17.95;39.50;96614.16;1040572;28;999;-61
2021/10/24 01:50:45;;;;;;;;;;;;;;;17.95;39.61;96614.16;1040770;28;1244;-61
2021/10/24 01:51:16;;;;;;;;;;;;;;;17.96;39.64;96618.34;1045406;28;998;-61
2021/10/24 01:51:46;;;;;;;;;;;;;;;17.95;39.61;96612.31;1044819;28;719;-61
2021/10/24 01:52:16;;;;;;;;;;;;;;;17.95;39.67;96620.19;1044256;28;1018;-61
2021/10/24 01:52:47;;;;;;;;;;;;;;;17.96;39.71;96618.34;1044548;28;855;-61
2021/10/24 01:53:18;;;;;;;;;;;;;;;17.95;39.55;96619.41;1045195;28;1010;-61
2021/10/24 01:53:48;;;;;;;;;;;;;;;17.95;39.63;96620.19;1045153;28;1089;-61
2021/10/24 01:54:19;;;;;;;;;;;;;;;17.96;39.60;96618.34;1044152;28;801;-61
2021/10/24 01:54:49;;;;;;;;;;;;;;;17.96;39.75;96620.97;1044743;28;765;-61
2021/10/24 01:55:20;;;;;;;;;;;;;;;17.95;39.75;96614.94;1044921;28;804;-61
2021/10/24 01:55:50;;;;;;;;;;;;;;;17.95;39.65;96617.56;1045132;28;927;-61
2021/10/24 01:56:21;;;;;;;;;;;;;;;17.96;39.60;96618.34;1045128;28;848;-61
2021/10/24 01:56:51;;;;;;;;;;;;;;;17.94;39.53;96613.34;1040448;28;1558;-61
2021/10/24 01:57:21;;;;;;;;;;;;;;;17.93;39.63;96611.75;1040855;28;788;-61
2021/10/24 01:57:52;;;;;;;;;;;;;;;17.94;39.72;96608.09;1040519;28;1051;-61
2021/10/24 01:58:23;;;;;;;;;;;;;;;17.96;39.55;96610.47;1044798;28;814;-61
2021/10/24 01:58:53;;;;;;;;;;;;;;;17.94;39.64;96607.31;1044828;28;848;-61
2021/10/24 01:59:24;;;;;;;;;;;;;;;17.94;39.68;96613.34;1045135;28;982;-61
2021/10/24 01:59:54;;;;;;;;;;;;;;;17.95;39.68;96614.16;1045306;28;881;-60
2021/10/24 02:00:25;;;;;;;;;;;;;;;17.95;39.77;96608.91;1045044;28;943;-60
2021/10/24 02:00:55;;;;;;;;;;;;;;;17.95;39.62;96608.91;1045193;28;1335;-61
2021/10/24 02:01:25;;;;;;;;;;;;;;;17.94;39.63;96602.84;1044839;28;816;-61
2021/10/24 02:01:56;;;;;;;;;;;;;;;17.93;39.65;96609.13;1044766;28;1184;-61
2021/10/24 02:02:26;;;;;;;;;;;;;;;17.92;39.67;96604.91;1044304;28;1979;-61
2021/10/24 02:02:56;;;;;;;;;;;;;;;17.93;39.63;96606.50;1043605;28;1119;-61
2021/10/24 02:03:27;;;;;;;;;;;;;;;17.92;39.72;96604.91;1049156;28;508;-61
2021/10/24 02:03:57;;;;;;;;;;;;;;;17.92;39.64;96604.13;1044481;28;1065;-61
2021/10/24 02:04:27;;;;;;;;;;;;;;;17.94;39.65;96609.94;1044110;28;788;-61
2021/10/24 02:04:58;;;;;;;;;;;;;;;17.92;39.58;96604.91;1044899;28;844;-60
2021/10/24 02:05:28;;;;;;;;;;;;;;;17.93;39.80;96600.47;1044846;28;1450;-61
2021/10/24 02:05:59;;;;;;;;;;;;;;;17.93;39.76;96609.13;1044402;28;947;-61
2021/10/24 02:06:29;;;;;;;;;;;;;;;17.92;39.65;96604.13;1044769;28;843;-61
2021/10/24 02:06:59;;;;;;;;;;;;;;;17.93;39.66;96603.09;1044746;28;835;-61
2021/10/24 02:07:30;;;;;;;;;;;;;;;17.92;39.50;96609.38;1044704;28;1070;-61
2021/10/24 02:08:00;;;;;;;;;;;;;;;17.92;39.63;96597.06;1044908;28;1272;-61
2021/10/24 02:08:31;;;;;;;;;;;;;;;17.93;39.73;96598.63;1045218;28;1033;-61
2021/10/24 02:09:02;;;;;;;;;;;;;;;17.92;39.63;96598.88;1044222;28;820;-61
2021/10/24 02:09:32;;;;;;;;;;;;;;;17.92;39.71;96604.91;1045099;28;792;-61
2021/10/24 02:10:04;;;;;;;;;;;;;;;17.91;39.77;96598.06;1045194;28;781;-61
2021/10/24 02:10:34;;;;;;;;;;;;;;;17.91;39.65;96595.44;1044362;28;824;-62
2021/10/24 02:11:05;;;;;;;;;;;;;;;17.92;39.70;96604.91;1044389;28;1284;-61
2021/10/24 02:11:35;;;;;;;;;;;;;;;17.92;39.66;96599.69;1045159;28;1030;-61
2021/10/24 02:12:05;;;;;;;;;;;;;;;17.92;39.64;96599.69;1044987;28;866;-61
2021/10/24 02:12:35;;;;;;;;;;;;;;;17.93;39.62;96600.47;1045016;28;879;-61
2021/10/24 02:13:06;;;;;;;;;;;;;;;17.91;39.57;96598.06;1044578;28;844;-61
2021/10/24 02:13:36;;;;;;;;;;;;;;;17.90;39.76;96599.13;1045081;28;776;-61
2021/10/24 02:14:07;;;;;;;;;;;;;;;17.92;39.73;96596.25;1044405;28;963;-61
2021/10/24 02:14:37;;;;;;;;;;;;;;;17.93;39.66;96595.22;1044249;28;804;-61
2021/10/24 02:15:08;;;;;;;;;;;;;;;17.92;39.81;96598.88;1044956;28;1078;-61
2021/10/24 02:15:39;;;;;;;;;;;;;;;17.92;39.70;96596.25;1044793;28;794;-61
2021/10/24 02:16:09;;;;;;;;;;;;;;;17.92;39.55;96599.69;1044714;28;1015;-61
2021/10/24 02:16:39;;;;;;;;;;;;;;;17.92;39.62;96598.88;1044887;28;807;-61
2021/10/24 02:17:10;;;;;;;;;;;;;;;17.92;39.71;96598.88;1044561;28;662;-61
2021/10/24 02:17:40;;;;;;;;;;;;;;;17.92;39.62;96598.88;1043736;28;1021;-61
2021/10/24 02:18:11;;;;;;;;;;;;;;;17.92;39.63;96598.88;1044759;28;874;-63
2021/10/24 02:18:41;;;;;;;;;;;;;;;17.92;39.68;96598.88;1040693;28;882;-61
2021/10/24 02:19:11;;;;;;;;;;;;;;;17.91;39.78;96598.06;1040111;28;883;-61
2021/10/24 02:19:42;;;;;;;;;;;;;;;17.91;39.67;96598.06;1040737;28;862;-61
2021/10/24 02:20:13;;;;;;;;;;;;;;;17.91;39.68;96598.06;1044888;28;782;-61
2021/10/24 02:20:44;;;;;;;;;;;;;;;17.89;39.59;96595.69;1044959;28;1330;-61
2021/10/24 02:21:14;;;;;;;;;;;;;;;17.91;39.52;96597.28;1044854;28;1022;-61
2021/10/24 02:21:45;;;;;;;;;;;;;;;17.91;39.57;96594.69;1045016;28;781;-61
2021/10/24 02:22:15;;;;;;;;;;;;;;;17.91;39.59;96597.28;1044742;28;1894;-61
2021/10/24 02:22:46;;;;;;;;;;;;;;;17.92;39.63;96591.00;1043980;28;789;-61
2021/10/24 02:23:16;;;;;;;;;;;;;;;17.91;39.52;96592.81;1044507;28;733;-61
2021/10/24 02:23:46;;;;;;;;;;;;;;;17.89;39.80;96595.69;1044895;28;982;-61
2021/10/24 02:24:17;;;;;;;;;;;;;;;17.90;39.76;96596.50;1044426;28;1034;-61
2021/10/24 02:24:47;;;;;;;;;;;;;;;17.89;39.60;96593.06;1044767;28;1068;-61
2021/10/24 02:25:18;;;;;;;;;;;;;;;17.91;39.51;96592.81;1045037;28;784;-59
2021/10/24 02:25:48;;;;;;;;;;;;;;;17.91;39.67;96592.06;1045006;28;812;-61
2021/10/24 02:26:18;;;;;;;;;;;;;;;17.88;39.58;96588.88;1045122;28;1011;-60
2021/10/24 02:26:48;;;;;;;;;;;;;;;17.89;39.68;96600.94;1044892;28;1077;-61
2021/10/24 02:27:19;;;;;;;;;;;;;;;17.91;39.72;96594.69;1044576;28;1022;-61
2021/10/24 02:27:49;;;;;;;;;;;;;;;17.89;39.50;96595.69;1044089;28;729;-61
2021/10/24 02:28:20;;;;;;;;;;;;;;;17.90;39.75;96591.25;1044047;28;800;-61
2021/10/24 02:28:51;;;;;;;;;;;;;;;17.91;39.51;96592.06;1044821;28;797;-59
2021/10/24 02:29:21;;;;;;;;;;;;;;;17.90;39.62;96593.88;1045025;28;943;-60
2021/10/24 02:29:52;;;;;;;;;;;;;;;17.90;39.58;96596.50;1044768;28;1027;-60
2021/10/24 02:30:22;;;;;;;;;;;;;;;17.91;39.72;96594.69;1045070;28;811;-60
2021/10/24 02:30:52;;;;;;;;;;;;;;;17.89;39.63;96593.06;1044660;28;1312;-61
2021/10/24 02:31:23;;;;;;;;;;;;;;;17.89;39.71;96598.31;1044165;28;859;-61
2021/10/24 02:31:53;;;;;;;;;;;;;;;17.89;39.64;96593.06;1040286;28;883;-60
2021/10/24 02:32:24;;;;;;;;;;;;;;;17.89;39.67;96594.88;1040610;28;887;-61
2021/10/24 02:32:54;;;;;;;;;;;;;;;17.90;39.48;96591.25;1042577;28;1073;-61
2021/10/24 02:33:24;;;;;;;;;;;;;;;17.90;39.63;96596.50;1044151;28;795;-60
2021/10/24 02:33:55;;;;;;;;;;;;;;;17.90;39.65;96588.63;1044814;28;1010;-60
2021/10/24 02:34:25;;;;;;;;;;;;;;;17.90;39.67;96599.13;1044415;28;805;-61
2021/10/24 02:34:55;;;;;;;;;;;;;;;17.91;39.60;96597.28;1045143;28;721;-61
2021/10/24 02:35:26;;;;;;;;;;;;;;;17.89;39.71;96595.69;1044577;28;1045;-60
2021/10/24 02:35:56;;;;;;;;;;;;;;;17.89;39.54;96598.31;1044893;28;1022;-59
2021/10/24 02:36:26;;;;;;;;;;;;;;;17.88;39.57;96594.13;1045075;28;1014;-60
2021/10/24 02:36:57;;;;;;;;;;;;;;;17.89;39.52;96589.63;1045031;28;729;-60
2021/10/24 02:37:27;;;;;;;;;;;;;;;17.89;39.71;96597.50;1044836;28;950;-61
2021/10/24 02:37:57;;;;;;;;;;;;;;;17.88;39.63;96596.75;1043825;28;974;-60
2021/10/24 02:38:28;;;;;;;;;;;;;;;17.89;39.61;96592.25;1044741;28;753;-60
2021/10/24 02:38:58;;;;;;;;;;;;;;;17.88;39.66;96588.88;1044524;28;796;-61
2021/10/24 02:39:28;;;;;;;;;;;;;;;17.89;39.53;96590.44;1045054;28;951;-61
2021/10/24 02:39:59;;;;;;;;;;;;;;;17.89;39.67;96598.31;1044771;28;749;-61
2021/10/24 02:40:29;;;;;;;;;;;;;;;17.88;39.72;96591.50;1043833;28;1366;-61
2021/10/24 02:40:59;;;;;;;;;;;;;;;17.89;39.64;96593.06;1044392;28;1265;-61
2021/10/24 02:41:29;;;;;;;;;;;;;;;17.89;39.68;96595.69;1044724;28;845;-59
2021/10/24 02:42:00;;;;;;;;;;;;;;;17.90;39.68;96596.50;1044372;28;1315;-61
2021/10/24 02:42:30;;;;;;;;;;;;;;;17.88;39.65;96593.31;1040318;28;1979;-61
2021/10/24 02:43:01;;;;;;;;;;;;;;;17.88;39.66;96588.88;1040058;28;915;-61
2021/10/24 02:43:31;;;;;;;;;;;;;;;17.88;39.79;96591.50;1040679;28;875;-61
2021/10/24 02:44:01;;;;;;;;;;;;;;;17.88;39.63;96594.13;1044616;28;789;-61
2021/10/24 02:44:32;;;;;;;;;;;;;;;17.87;39.67;96589.09;1044391;28;851;-60
2021/10/24 02:45:03;;;;;;;;;;;;;;;17.88;39.50;96585.44;1044982;28;776;-61
2021/10/24 02:45:36;;;;;;;;;;;;;;;17.88;39.61;96594.13;1045077;28;860;-60
2021/10/24 02:46:06;;;;;;;;;;;;;;;17.88;39.66;96590.69;1044841;28;1028;-61
2021/10/24 02:46:36;;;;;;;;;;;;;;;17.87;39.77;96586.47;1044983;28;994;-61
2021/10/24 02:47:07;;;;;;;;;;;;;;;17.87;39.72;96587.25;1044438;28;1018;-61